createdAt,value
2018-12-03T00:01:55.725Z,29.57
2018-12-03T00:04:25.567Z,29.37
2018-12-03T00:06:55.222Z,29.63
2018-12-03T00:09:24.822Z,29.77
2018-12-03T00:11:54.418Z,29.40
2018-12-03T00:14:24.094Z,28.87
2018-12-03T00:16:53.910Z,29.40
2018-12-03T00:19:23.558Z,27.77
2018-12-03T00:21:53.115Z,28.30
2018-12-03T00:24:22.992Z,28.70
2018-12-03T00:26:52.659Z,28.90
2018-12-03T00:29:22.320Z,28.77
2018-12-03T00:31:52.097Z,28.93
2018-12-03T00:34:21.746Z,28.53
2018-12-03T00:36:51.665Z,28.43
2018-12-03T00:39:21.207Z,28.53
2018-12-03T00:41:51.102Z,29.83
2018-12-03T00:44:20.615Z,29.90
2018-12-03T00:46:50.431Z,28.67
2018-12-03T00:49:20.060Z,30.23
2018-12-03T00:51:49.540Z,29.30
2018-12-03T00:54:19.145Z,29.33
2018-12-03T00:56:49.205Z,29.70
2018-12-03T00:59:18.790Z,31.20
2018-12-03T01:01:48.363Z,29.27
2018-12-03T01:04:17.968Z,29.60
2018-12-03T01:06:47.618Z,28.73
2018-12-03T01:09:17.208Z,29.00
2018-12-03T01:11:47.019Z,29.23
2018-12-03T01:14:16.843Z,29.27
2018-12-03T01:16:46.662Z,28.33
2018-12-03T01:19:16.528Z,28.17
2018-12-03T01:21:46.066Z,29.73
2018-12-03T01:24:16.030Z,29.13
2018-12-03T01:26:45.660Z,28.50
2018-12-03T01:29:15.194Z,29.90
2018-12-03T01:31:44.834Z,30.90
2018-12-03T01:34:14.390Z,30.03
2018-12-03T01:36:44.162Z,28.83
2018-12-03T01:39:13.585Z,30.10
2018-12-03T01:41:43.412Z,29.00
2018-12-03T01:44:13.006Z,28.97
2018-12-03T01:46:42.424Z,30.03
2018-12-03T01:49:12.060Z,29.33
2018-12-03T01:51:41.641Z,29.93
2018-12-03T01:54:11.375Z,29.50
2018-12-03T01:56:40.983Z,29.80
2018-12-03T01:59:10.470Z,29.97
2018-12-03T02:01:40.472Z,29.80
2018-12-03T02:04:10.006Z,29.93
2018-12-03T02:06:39.998Z,29.40
2018-12-03T02:09:10.061Z,30.40
2018-12-03T02:11:40.089Z,29.37
2018-12-03T02:14:09.773Z,31.13
2018-12-03T02:16:39.661Z,30.57
2018-12-03T02:19:09.505Z,31.93
2018-12-03T02:21:39.214Z,30.33
2018-12-03T02:24:08.837Z,30.10
2018-12-03T02:26:38.451Z,32.47
2018-12-03T02:29:08.063Z,29.60
2018-12-03T02:31:37.515Z,30.37
2018-12-03T02:34:07.250Z,29.50
2018-12-03T02:36:37.019Z,31.07
2018-12-03T02:39:08.499Z,30.37
2018-12-03T02:41:38.086Z,30.73
2018-12-03T02:44:07.743Z,31.93
2018-12-03T02:46:37.471Z,31.37
2018-12-03T02:49:07.308Z,30.97
2018-12-03T02:51:36.820Z,30.80
2018-12-03T02:54:06.753Z,30.50
2018-12-03T02:56:36.485Z,30.83
2018-12-03T02:59:06.301Z,30.47
2018-12-03T03:01:35.881Z,31.63
2018-12-03T03:04:05.752Z,29.57
2018-12-03T03:06:35.400Z,29.70
2018-12-03T03:09:07.146Z,31.23
2018-12-03T03:11:36.876Z,27.77
2018-12-03T03:14:06.790Z,29.73
2018-12-03T03:16:36.458Z,29.53
2018-12-03T03:19:06.216Z,28.90
2018-12-03T03:21:35.790Z,30.90
2018-12-03T03:24:05.921Z,30.97
2018-12-03T03:26:35.841Z,31.10
2018-12-03T03:29:06.577Z,28.83
2018-12-03T03:31:36.184Z,30.53
2018-12-03T03:34:05.772Z,30.70
2018-12-03T03:36:35.299Z,29.70
2018-12-03T03:39:06.874Z,30.10
2018-12-03T03:41:36.652Z,29.50
2018-12-03T03:44:06.960Z,30.37
2018-12-03T03:46:36.652Z,30.43
2018-12-03T03:49:06.166Z,32.07
2018-12-03T03:51:36.133Z,30.80
2018-12-03T03:54:06.722Z,32.27
2018-12-03T03:56:36.455Z,32.10
2018-12-03T03:59:06.270Z,31.30
2018-12-03T04:01:36.022Z,31.73
2018-12-03T04:04:06.777Z,33.67
2018-12-03T04:06:36.417Z,33.60
2018-12-03T04:09:07.511Z,31.30
2018-12-03T04:11:37.149Z,32.40
2018-12-03T04:14:07.113Z,32.60
2018-12-03T04:16:36.832Z,32.83
2018-12-03T04:19:06.454Z,33.43
2018-12-03T04:21:36.272Z,32.07
2018-12-03T04:24:05.921Z,31.97
2018-12-03T04:26:35.852Z,32.80
2018-12-03T04:29:05.841Z,35.03
2018-12-03T04:31:35.681Z,33.57
2018-12-03T04:34:05.478Z,34.03
2018-12-03T04:36:35.192Z,34.57
2018-12-03T04:39:06.469Z,34.50
2018-12-03T04:41:36.215Z,33.60
2018-12-03T04:44:06.514Z,33.90
2018-12-03T04:46:36.075Z,33.90
2018-12-03T04:49:06.191Z,33.63
2018-12-03T04:51:35.978Z,32.40
2018-12-03T04:54:05.437Z,35.13
2018-12-03T04:56:35.334Z,33.80
2018-12-03T04:59:05.128Z,34.53
2018-12-03T05:01:34.879Z,33.63
2018-12-03T05:04:04.646Z,32.90
2018-12-03T05:06:34.588Z,33.53
2018-12-03T05:09:05.528Z,34.80
2018-12-03T05:11:35.573Z,35.27
2018-12-03T05:14:05.757Z,36.13
2018-12-03T05:16:35.638Z,31.93
2018-12-03T05:19:05.454Z,33.60
2018-12-03T05:21:35.702Z,33.97
2018-12-03T05:24:05.512Z,33.97
2018-12-03T05:26:35.066Z,33.07
2018-12-03T05:29:04.700Z,32.20
2018-12-03T05:31:34.270Z,33.23
2018-12-03T05:34:04.048Z,31.80
2018-12-03T05:36:33.694Z,33.17
2018-12-03T05:39:03.798Z,32.90
2018-12-03T05:41:33.586Z,33.70
2018-12-03T05:44:03.240Z,32.73
2018-12-03T05:46:32.846Z,33.50
2018-12-03T05:49:02.447Z,32.30
2018-12-03T05:51:32.070Z,33.27
2018-12-03T05:54:01.661Z,35.10
2018-12-03T05:56:31.290Z,33.67
2018-12-03T05:59:00.786Z,33.90
2018-12-03T06:01:30.796Z,34.23
2018-12-03T06:04:00.687Z,33.03
2018-12-03T06:06:30.244Z,32.80
2018-12-03T06:08:59.830Z,33.13
2018-12-03T06:11:29.858Z,32.83
2018-12-03T06:13:59.324Z,33.53
2018-12-03T06:16:29.092Z,32.70
2018-12-03T06:18:58.742Z,33.17
2018-12-03T06:21:28.184Z,32.40
2018-12-03T06:23:57.866Z,31.50
2018-12-03T06:26:27.623Z,32.80
2018-12-03T06:28:57.671Z,31.57
2018-12-03T06:31:27.228Z,32.60
2018-12-03T06:33:56.817Z,30.47
2018-12-03T06:36:26.622Z,31.37
2018-12-03T06:38:56.624Z,31.03
2018-12-03T06:41:26.632Z,31.30
2018-12-03T06:43:56.144Z,30.40
2018-12-03T06:46:26.184Z,31.53
2018-12-03T06:48:55.784Z,29.37
2018-12-03T06:51:25.295Z,28.53
2018-12-03T06:53:55.290Z,30.17
2018-12-03T06:56:24.916Z,31.00
2018-12-03T06:58:54.624Z,29.57
2018-12-03T07:01:24.339Z,28.90
2018-12-03T07:03:54.064Z,29.33
2018-12-03T07:06:23.658Z,29.70
2018-12-03T07:08:53.310Z,30.40
2018-12-03T07:11:22.935Z,29.60
2018-12-03T07:13:52.964Z,28.97
2018-12-03T07:16:22.684Z,27.53
2018-12-03T07:18:52.446Z,28.07
2018-12-03T07:21:22.130Z,28.13
2018-12-03T07:23:51.829Z,28.67
2018-12-03T07:26:21.370Z,27.03
2018-12-03T07:28:50.923Z,27.17
2018-12-03T07:31:20.550Z,27.03
2018-12-03T07:33:50.181Z,25.50
2018-12-03T07:36:20.068Z,26.53
2018-12-03T07:38:49.662Z,27.07
2018-12-03T07:41:19.389Z,26.53
2018-12-03T07:43:49.175Z,25.30
2018-12-03T07:46:18.838Z,26.83
2018-12-03T07:48:48.698Z,26.67
2018-12-03T07:51:18.631Z,27.37
2018-12-03T07:53:48.412Z,25.30
2018-12-03T07:56:17.942Z,27.07
2018-12-03T07:58:47.614Z,25.13
2018-12-03T08:01:17.091Z,25.93
2018-12-03T08:03:46.814Z,26.40
2018-12-03T08:06:16.410Z,25.03
2018-12-03T08:08:45.992Z,24.97
2018-12-03T08:11:15.918Z,26.40
2018-12-03T08:13:45.802Z,26.37
2018-12-03T08:16:15.348Z,26.10
2018-12-03T08:18:45.034Z,25.10
2018-12-03T08:21:14.548Z,24.93
2018-12-03T08:23:48.150Z,26.60
2018-12-03T08:26:18.185Z,25.83
2018-12-03T08:28:47.776Z,26.43
2018-12-03T08:31:17.400Z,27.47
2018-12-03T08:33:47.193Z,25.63
2018-12-03T08:36:16.923Z,25.57
2018-12-03T08:38:46.782Z,26.50
2018-12-03T08:41:16.667Z,26.33
2018-12-03T08:43:46.522Z,24.80
2018-12-03T08:46:16.559Z,24.43
2018-12-03T08:48:46.146Z,25.03
2018-12-03T08:51:16.089Z,24.50
2018-12-03T08:53:47.905Z,25.10
2018-12-03T08:56:17.665Z,24.73
2018-12-03T08:58:47.682Z,25.13
2018-12-03T09:01:19.459Z,24.23
2018-12-03T09:03:53.966Z,23.63
2018-12-03T09:06:23.602Z,23.57
2018-12-03T09:08:53.390Z,24.23
2018-12-03T09:11:23.751Z,23.13
2018-12-03T09:13:53.459Z,22.73
2018-12-03T09:16:23.075Z,23.70
2018-12-03T09:18:53.535Z,24.30
2018-12-03T09:21:23.253Z,23.43
2018-12-03T09:23:55.197Z,24.50
2018-12-03T09:26:25.008Z,23.27
2018-12-03T09:28:54.672Z,23.70
2018-12-03T09:32:00.401Z,24.30
2018-12-03T09:34:29.985Z,23.30
2018-12-03T09:36:59.729Z,24.20
2018-12-03T09:39:29.449Z,23.93
2018-12-03T09:41:59.211Z,22.47
2018-12-03T09:44:28.731Z,23.63
2018-12-03T09:46:58.638Z,24.30
2018-12-03T09:49:28.379Z,21.60
2018-12-03T09:51:58.137Z,22.93
2018-12-03T09:54:27.893Z,22.23
2018-12-03T09:56:57.479Z,23.40
2018-12-03T09:59:27.421Z,23.23
2018-12-03T10:01:59.531Z,24.20
2018-12-03T10:04:32.271Z,23.43
2018-12-03T10:07:02.061Z,23.67
2018-12-03T10:09:38.335Z,23.87
2018-12-03T10:12:08.955Z,23.47
2018-12-03T10:14:38.884Z,22.77
2018-12-03T10:17:08.661Z,24.13
2018-12-03T10:19:40.057Z,23.57
2018-12-03T10:22:10.016Z,23.40
2018-12-03T10:24:39.702Z,23.97
2018-12-03T10:27:12.070Z,23.87
2018-12-03T10:29:42.219Z,23.83
2018-12-03T10:32:17.407Z,25.43
2018-12-03T10:34:47.057Z,24.33
2018-12-03T10:37:17.955Z,24.07
2018-12-03T10:39:48.671Z,23.53
2018-12-03T10:42:19.024Z,22.40
2018-12-03T10:44:49.227Z,23.03
2018-12-03T10:47:18.823Z,23.07
2018-12-03T10:49:48.659Z,23.00
2018-12-03T10:52:19.771Z,23.53
2018-12-03T10:54:49.516Z,23.63
2018-12-03T10:57:19.222Z,22.43
2018-12-03T10:59:51.685Z,21.83
2018-12-03T11:02:34.783Z,23.13
2018-12-03T11:05:09.824Z,22.50
2018-12-03T11:07:39.555Z,22.60
2018-12-03T11:10:09.444Z,22.87
2018-12-03T11:12:39.479Z,23.57
2018-12-03T11:15:13.696Z,24.10
2018-12-03T11:17:44.682Z,22.90
2018-12-03T11:20:14.482Z,24.17
2018-12-03T11:22:44.574Z,24.67
2018-12-03T11:25:16.097Z,24.13
2018-12-03T11:27:49.530Z,22.00
2018-12-03T11:30:19.826Z,23.60
2018-12-03T11:32:49.902Z,23.07
2018-12-03T11:35:25.764Z,22.33
2018-12-03T11:38:01.390Z,23.10
2018-12-03T11:40:49.174Z,23.87
2018-12-03T11:43:18.700Z,22.77
2018-12-03T11:45:48.509Z,22.97
2018-12-03T11:48:18.248Z,23.50
2018-12-03T11:50:47.787Z,22.77
2018-12-03T11:53:18.386Z,23.77
2018-12-03T11:55:48.302Z,23.10
2018-12-03T11:58:17.782Z,23.67
2018-12-03T12:00:47.491Z,24.00
2018-12-03T12:03:17.278Z,23.83
2018-12-03T12:05:47.215Z,22.83
2018-12-03T12:08:17.210Z,23.30
2018-12-03T12:10:46.752Z,22.70
2018-12-03T12:13:18.314Z,23.87
2018-12-03T12:15:48.114Z,23.67
2018-12-03T12:18:17.849Z,24.23
2018-12-03T12:20:48.000Z,25.10
2018-12-03T12:23:18.253Z,23.83
2018-12-03T12:25:47.885Z,25.00
2018-12-03T12:28:17.477Z,25.93
2018-12-03T12:30:47.125Z,25.37
2018-12-03T12:33:16.551Z,24.13
2018-12-03T12:35:46.161Z,24.93
2018-12-03T12:38:15.893Z,25.07
2018-12-03T12:40:45.481Z,24.10
2018-12-03T12:43:15.313Z,24.83
2018-12-03T12:45:51.517Z,24.40
2018-12-03T12:48:21.295Z,25.27
2018-12-03T12:50:51.210Z,24.23
2018-12-03T12:53:20.928Z,24.67
2018-12-03T12:55:50.410Z,23.47
2018-12-03T12:58:20.266Z,25.70
2018-12-03T13:00:50.044Z,24.70
2018-12-03T13:03:19.540Z,24.63
2018-12-03T13:05:49.345Z,25.27
2018-12-03T13:08:18.864Z,24.03
2018-12-03T13:10:48.469Z,25.13
2018-12-03T13:13:18.058Z,24.57
2018-12-03T13:15:50.761Z,25.93
2018-12-03T13:18:20.235Z,24.40
2018-12-03T13:20:50.373Z,24.17
2018-12-03T13:23:19.835Z,25.13
2018-12-03T13:25:49.505Z,26.03
2018-12-03T13:28:25.493Z,26.03
2018-12-03T13:30:55.169Z,25.60
2018-12-03T13:33:25.108Z,26.13
2018-12-03T13:35:54.715Z,26.63
2018-12-03T13:38:31.103Z,25.87
2018-12-03T13:41:01.041Z,28.27
2018-12-03T13:43:30.900Z,27.70
2018-12-03T13:46:00.657Z,27.80
2018-12-03T13:48:30.395Z,28.53
2018-12-03T13:51:00.033Z,27.73
2018-12-03T13:53:29.633Z,28.27
2018-12-03T13:55:59.540Z,27.43
2018-12-03T13:58:29.339Z,28.73
2018-12-03T14:00:58.981Z,30.13
2018-12-03T14:03:31.014Z,28.73
2018-12-03T14:06:09.775Z,28.40
2018-12-03T14:08:50.315Z,29.17
2018-12-03T14:11:31.264Z,29.63
2018-12-03T14:18:18.014Z,29.20
2018-12-03T14:20:49.558Z,28.17
2018-12-03T14:23:22.775Z,29.23
2018-12-03T14:25:52.434Z,29.40
2018-12-03T14:28:22.041Z,28.77
2018-12-03T14:30:51.476Z,31.53
2018-12-03T14:33:21.234Z,29.13
2018-12-03T14:35:51.088Z,32.27
2018-12-03T14:38:20.592Z,30.77
2018-12-03T14:40:50.432Z,29.37
2018-12-03T14:43:20.265Z,31.47
2018-12-03T14:45:50.192Z,32.33
2018-12-03T14:48:20.017Z,32.47
2018-12-03T14:50:49.661Z,30.63
2018-12-03T14:53:19.477Z,31.00
2018-12-03T14:55:49.255Z,33.17
2018-12-03T14:58:18.784Z,31.70
2018-12-03T15:00:48.565Z,33.70
2018-12-03T15:03:18.531Z,32.37
2018-12-03T15:05:49.561Z,33.83
2018-12-03T15:08:19.229Z,33.37
2018-12-03T15:10:48.907Z,36.57
2018-12-03T15:13:18.925Z,33.33
2018-12-03T15:15:48.704Z,34.37
2018-12-03T15:18:18.444Z,33.67
2018-12-03T15:20:51.715Z,33.60
2018-12-03T15:23:21.389Z,33.83
2018-12-03T15:25:50.848Z,32.73
2018-12-03T15:28:20.871Z,33.60
2018-12-03T15:30:50.570Z,32.90
2018-12-03T15:33:20.315Z,35.60
2018-12-03T15:35:50.193Z,34.80
2018-12-03T15:38:20.866Z,34.57
2018-12-03T15:40:50.759Z,38.17
2018-12-03T15:43:20.528Z,34.63
2018-12-03T15:45:50.230Z,34.60
2018-12-03T15:48:19.931Z,36.20
2018-12-03T15:50:49.629Z,35.40
2018-12-03T15:53:19.387Z,34.10
2018-12-03T15:55:49.021Z,34.53
2018-12-03T15:58:18.587Z,36.30
2018-12-03T16:00:48.675Z,36.10
2018-12-03T16:03:18.334Z,36.50
2018-12-03T16:05:48.047Z,36.67
2018-12-03T16:08:17.675Z,36.53
2018-12-03T16:10:47.336Z,35.90
2018-12-03T16:13:17.158Z,38.07
2018-12-03T16:15:46.770Z,36.77
2018-12-03T16:18:16.353Z,35.57
2018-12-03T16:20:46.010Z,37.70
2018-12-03T16:23:15.595Z,36.47
2018-12-03T16:25:45.109Z,35.03
2018-12-03T16:28:14.831Z,36.60
2018-12-03T16:30:44.444Z,34.47
2018-12-03T16:33:13.945Z,34.70
2018-12-03T16:35:43.750Z,36.60
2018-12-03T16:38:13.485Z,36.43
2018-12-03T16:40:43.191Z,38.47
2018-12-03T16:43:12.649Z,37.00
2018-12-03T16:45:43.276Z,37.07
2018-12-03T16:48:12.917Z,36.23
2018-12-03T16:50:42.447Z,36.40
2018-12-03T16:53:11.992Z,36.30
2018-12-03T16:55:41.981Z,34.60
2018-12-03T16:58:11.633Z,34.80
2018-12-03T17:00:41.304Z,37.00
2018-12-03T17:03:10.889Z,37.90
2018-12-03T17:05:40.604Z,35.70
2018-12-03T17:08:10.455Z,36.00
2018-12-03T17:10:39.971Z,36.40
2018-12-03T17:13:09.814Z,37.00
2018-12-03T17:15:39.528Z,37.50
2018-12-03T17:18:11.296Z,36.70
2018-12-03T17:21:24.689Z,35.97
2018-12-03T17:24:01.983Z,37.33
2018-12-03T17:26:31.765Z,35.00
2018-12-03T17:29:01.307Z,35.17
2018-12-03T17:31:31.022Z,34.77
2018-12-03T17:34:00.835Z,35.53
2018-12-03T17:36:30.429Z,36.40
2018-12-03T17:39:00.050Z,34.93
2018-12-03T17:41:29.863Z,36.73
2018-12-03T17:44:05.818Z,34.20
2018-12-03T17:46:35.343Z,34.77
2018-12-03T17:49:04.834Z,35.83
2018-12-03T17:51:34.565Z,36.33
2018-12-03T17:54:04.325Z,37.23
2018-12-03T17:56:34.144Z,37.27
2018-12-03T17:59:03.912Z,37.17
2018-12-03T18:01:33.445Z,37.73
2018-12-03T18:04:03.083Z,36.80
2018-12-03T18:06:33.409Z,38.53
2018-12-03T18:09:03.843Z,36.70
2018-12-03T18:11:35.398Z,36.63
2018-12-03T18:14:04.851Z,36.67
2018-12-03T18:16:34.495Z,35.67
2018-12-03T18:19:04.262Z,33.53
2018-12-03T18:21:34.087Z,37.30
2018-12-03T18:24:04.127Z,35.43
2018-12-03T18:26:33.991Z,36.27
2018-12-03T18:29:03.554Z,35.30
2018-12-03T18:31:33.236Z,35.93
2018-12-03T18:34:03.135Z,35.60
2018-12-03T18:36:33.003Z,36.90
2018-12-03T18:39:02.679Z,37.57
2018-12-03T18:41:34.341Z,37.10
2018-12-03T18:44:04.094Z,36.53
2018-12-03T18:46:33.674Z,36.47
2018-12-03T18:49:39.311Z,36.47
2018-12-03T18:52:09.963Z,35.97
2018-12-03T18:54:39.600Z,34.80
2018-12-03T18:57:09.274Z,34.77
2018-12-03T18:59:38.984Z,35.83
2018-12-03T19:02:15.306Z,32.27
2018-12-03T19:04:44.811Z,36.27
2018-12-03T19:07:14.203Z,32.63
2018-12-03T19:09:43.739Z,32.20
2018-12-03T19:12:13.298Z,32.40
2018-12-03T19:14:43.098Z,32.67
2018-12-03T19:17:12.887Z,33.60
2018-12-03T19:19:42.498Z,30.30
2018-12-03T19:22:12.045Z,33.10
2018-12-03T19:24:41.594Z,31.87
2018-12-03T19:27:11.248Z,32.47
2018-12-03T19:29:40.914Z,32.70
2018-12-03T19:32:12.615Z,32.33
2018-12-03T19:34:44.400Z,31.83
2018-12-03T19:37:16.107Z,32.37
2018-12-03T19:39:45.790Z,33.20
2018-12-03T19:42:21.905Z,31.63
2018-12-03T19:44:51.827Z,31.93
2018-12-03T19:47:21.668Z,31.50
2018-12-03T19:49:51.096Z,32.77
2018-12-03T19:52:20.766Z,32.57
2018-12-03T19:54:51.274Z,30.83
2018-12-03T19:57:26.008Z,31.67
2018-12-03T20:00:00.890Z,30.27
2018-12-03T20:02:28.785Z,30.33
2018-12-03T20:07:46.845Z,30.00
2018-12-03T20:10:19.231Z,30.70
2018-12-03T20:12:49.420Z,31.23
2018-12-03T20:15:19.146Z,31.33
2018-12-03T20:17:49.063Z,30.77
2018-12-03T20:20:28.175Z,31.27
2018-12-03T20:23:02.298Z,31.50
2018-12-03T20:25:37.834Z,29.80
2018-12-03T20:28:11.570Z,30.57
2018-12-03T20:31:06.906Z,30.87
2018-12-03T20:34:50.842Z,30.30
2018-12-03T20:37:44.738Z,29.60
2018-12-03T20:40:21.514Z,30.27
2018-12-03T20:42:59.798Z,31.73
2018-12-03T20:46:46.946Z,32.50
2018-12-03T20:49:25.815Z,30.70
2018-12-03T20:52:05.674Z,30.17
2018-12-03T20:54:35.310Z,31.23
2018-12-03T20:57:05.354Z,32.23
2018-12-03T20:59:35.003Z,29.23
2018-12-03T21:02:06.698Z,30.67
2018-12-03T21:04:36.244Z,31.10
2018-12-03T21:07:06.010Z,33.00
2018-12-03T21:09:35.470Z,31.63
2018-12-03T21:12:05.120Z,31.33
2018-12-03T21:14:34.877Z,33.67
2018-12-03T21:17:04.302Z,30.87
2018-12-03T21:19:33.990Z,32.90
2018-12-03T21:22:03.692Z,32.73
2018-12-03T21:24:33.242Z,31.20
2018-12-03T21:27:02.879Z,32.67
2018-12-03T21:29:32.637Z,31.07
2018-12-03T21:32:02.380Z,31.17
2018-12-03T21:34:32.002Z,30.57
2018-12-03T21:37:01.471Z,32.27
2018-12-03T21:39:31.362Z,31.70
2018-12-03T21:42:00.978Z,30.40
2018-12-03T21:44:30.830Z,29.77
2018-12-03T21:47:00.617Z,30.97
2018-12-03T21:49:30.248Z,28.97
2018-12-03T21:51:59.890Z,31.17
2018-12-03T21:54:29.493Z,29.73
2018-12-03T21:56:59.062Z,31.17
2018-12-03T21:59:28.890Z,30.73
2018-12-03T22:01:58.640Z,29.37
2018-12-03T22:04:28.284Z,30.07
2018-12-03T22:06:57.852Z,29.97
2018-12-03T22:09:27.522Z,29.57
2018-12-03T22:11:57.727Z,30.07
2018-12-03T22:14:27.262Z,31.27
2018-12-03T22:16:56.767Z,28.23
2018-12-03T22:19:26.354Z,30.77
2018-12-03T22:22:02.320Z,28.73
2018-12-03T22:24:32.153Z,30.33
2018-12-03T22:27:01.729Z,29.07
2018-12-03T22:29:31.238Z,31.10
2018-12-03T22:32:01.063Z,28.60
2018-12-03T22:34:31.118Z,28.27
2018-12-03T22:37:00.697Z,31.47
2018-12-03T22:39:30.452Z,31.53
2018-12-03T22:42:00.325Z,31.07
2018-12-03T22:44:30.160Z,30.70
2018-12-03T22:46:59.827Z,31.67
2018-12-03T22:49:29.641Z,31.00
2018-12-03T22:51:59.507Z,30.40
2018-12-03T22:54:29.545Z,29.70
2018-12-03T22:56:59.137Z,30.67
2018-12-03T22:59:29.006Z,30.07
2018-12-03T23:01:58.868Z,31.17
2018-12-03T23:04:28.909Z,29.90
2018-12-03T23:06:58.696Z,31.40
2018-12-03T23:09:28.449Z,29.63
2018-12-03T23:11:58.347Z,29.63
2018-12-03T23:14:27.907Z,29.33
2018-12-03T23:16:57.653Z,31.50
2018-12-03T23:19:27.330Z,30.73
2018-12-03T23:21:56.970Z,30.97
2018-12-03T23:24:26.533Z,30.40
2018-12-03T23:26:56.146Z,28.90
2018-12-03T23:29:26.018Z,30.03
2018-12-03T23:31:55.857Z,28.03
2018-12-03T23:34:25.656Z,29.50
2018-12-03T23:36:55.230Z,30.03
2018-12-03T23:39:24.907Z,30.27
2018-12-03T23:41:54.759Z,30.67
2018-12-03T23:44:24.530Z,29.67
2018-12-03T23:46:54.254Z,30.33
2018-12-03T23:49:24.016Z,30.63
2018-12-03T23:51:53.626Z,29.03
2018-12-03T23:54:23.224Z,30.27
2018-12-03T23:56:53.199Z,30.03
2018-12-03T23:59:23.104Z,29.50
